Time;durP1;ratioP1;P1;durP2;ratioP2;P2;SDS_P1;SDS_P2;PMS_P1;PMS_P2;Temp;Humidity;BMP_temperature;BMP_pressure;BME280_temperature;BME280_humidity;BME280_pressure;Samples;Min_cycle;Max_cycle;Signal;HPM_P1;HPM_P2
2023/03/08 00:00:39;;;;;;;8.48;5.03;;;;;;;2.25;100.00;99971.09;5116160;27;20043;-64
2023/03/08 00:03:09;;;;;;;7.30;4.82;;;;;;;2.22;100.00;99963.50;5114094;28;20495;-65
2023/03/08 00:05:37;;;;;;;7.93;5.18;;;;;;;2.22;100.00;99965.38;5098943;28;20483;-65
2023/03/08 00:08:05;;;;;;;10.27;5.55;;;;;;;2.20;100.00;99967.47;5082108;28;20054;-63
2023/03/08 00:10:33;;;;;;;8.85;5.50;;;;;;;2.19;100.00;99972.03;5098192;27;20039;-64
2023/03/08 00:13:00;;;;;;;9.57;6.03;;;;;;;2.20;100.00;99964.78;5115300;28;20043;-63
2023/03/08 00:15:28;;;;;;;10.70;5.47;;;;;;;2.19;100.00;99961.28;5101063;28;20459;-65
2023/03/08 00:17:56;;;;;;;9.82;5.93;;;;;;;2.21;100.00;99963.72;5095420;28;20051;-65
2023/03/08 00:20:23;;;;;;;11.13;5.85;;;;;;;2.21;100.00;99963.72;5096405;28;20088;-65
2023/03/08 00:22:51;;;;;;;9.00;5.57;;;;;;;2.22;100.00;99957.31;5113769;27;20094;-64
2023/03/08 00:25:19;;;;;;;11.35;5.63;;;;;;;2.23;100.00;99953.56;5116362;28;20047;-65
2023/03/08 00:27:46;;;;;;;9.88;6.18;;;;;;;2.24;100.00;99957.91;5114641;28;20044;-66
2023/03/08 00:30:15;;;;;;;10.00;6.40;;;;;;;2.25;100.00;99964.91;5098014;28;20131;-64
2023/03/08 00:32:43;;;;;;;10.32;6.13;;;;;;;2.24;100.00;99958.72;5115290;27;20073;-64
2023/03/08 00:35:12;;;;;;;10.05;6.38;;;;;;;2.22;100.00;99960.00;5114680;28;20126;-63
2023/03/08 00:37:40;;;;;;;9.82;6.20;;;;;;;2.21;100.00;99953.78;5114642;28;20040;-65
2023/03/08 00:40:11;;;;;;;10.05;6.57;;;;;;;2.24;100.00;99957.91;5092983;28;20044;-64
2023/03/08 00:42:38;;;;;;;12.65;7.05;;;;;;;2.23;100.00;99956.25;5093990;28;20548;-64
2023/03/08 00:45:07;;;;;;;10.80;6.57;;;;;;;2.23;100.00;99956.25;5094301;28;20063;-63
2023/03/08 00:47:36;;;;;;;12.20;7.00;;;;;;;2.23;100.00;99953.56;5095295;28;20051;-64
2023/03/08 00:50:06;;;;;;;12.32;6.65;;;;;;;2.23;100.00;99957.06;5113513;27;20047;-64
2023/03/08 00:52:35;;;;;;;11.25;6.53;;;;;;;2.25;100.00;99954.16;5113096;28;20134;-64
2023/03/08 00:55:03;;;;;;;10.45;6.05;;;;;;;2.28;100.00;99948.28;5097656;28;20444;-64
2023/03/08 00:57:32;;;;;;;10.50;6.30;;;;;;;2.30;100.00;99947.00;5114261;28;20070;-65
2023/03/08 00:59:59;;;;;;;12.15;7.57;;;;;;;2.30;100.00;99946.19;5113271;27;20161;-65
2023/03/08 01:02:30;;;;;;;9.05;6.78;;;;;;;2.28;100.00;99942.91;5116539;28;20039;-66
2023/03/08 01:04:57;;;;;;;12.80;7.20;;;;;;;2.28;100.00;99934.84;5122624;28;20039;-64
2023/03/08 01:07:27;;;;;;;8.30;5.78;;;;;;;2.30;100.00;99938.13;5099149;28;20044;-64
2023/03/08 01:09:55;;;;;;;12.18;6.93;;;;;;;2.30;100.00;99930.88;5069772;28;20375;-65
2023/03/08 01:12:24;;;;;;;10.13;7.43;;;;;;;2.28;100.00;99938.34;5107758;28;20047;-65
2023/03/08 01:14:53;;;;;;;8.20;6.40;;;;;;;2.33;100.00;99943.03;5098565;28;20054;-65
2023/03/08 01:17:20;;;;;;;9.57;5.82;;;;;;;2.34;100.00;99933.94;5104584;27;20047;-64
2023/03/08 01:19:48;;;;;;;11.35;7.65;;;;;;;2.32;100.00;99928.78;5115177;28;20059;-65
2023/03/08 01:22:18;;;;;;;13.43;8.15;;;;;;;2.30;100.00;99930.06;5100786;27;20066;-64
2023/03/08 01:24:47;;;;;;;11.65;8.15;;;;;;;2.29;100.00;99915.00;5095424;28;20135;-64
2023/03/08 01:27:16;;;;;;;12.65;9.05;;;;;;;2.26;100.00;99907.38;5060348;28;20407;-64
2023/03/08 01:29:43;;;;;;;15.20;9.00;;;;;;;2.26;100.00;99907.38;5080904;28;20062;-64
2023/03/08 01:32:11;;;;;;;14.07;9.25;;;;;;;2.27;100.00;99909.03;5087745;27;20039;-64
2023/03/08 01:34:39;;;;;;;13.07;9.68;;;;;;;2.30;100.00;99897.81;5135233;27;20046;-64
2023/03/08 01:37:06;;;;;;;13.32;8.65;;;;;;;2.30;100.00;99897.81;5103047;27;20055;-64
2023/03/08 01:39:34;;;;;;;12.05;8.68;;;;;;;2.30;100.00;99897.81;5076707;28;20143;-64
2023/03/08 01:42:06;;;;;;;12.27;8.38;;;;;;;2.31;100.00;99888.72;5094511;28;20079;-63
2023/03/08 01:44:57;;;;;;;13.77;9.13;;;;;;;2.30;100.00;99877.13;5113325;28;20054;-64
2023/03/08 01:47:29;;;;;;;12.65;9.18;;;;;;;2.30;100.00;99884.38;5114493;28;20367;-65
2023/03/08 01:50:11;;;;;;;13.30;9.38;;;;;;;2.29;100.00;99870.13;5094113;28;20047;-65
2023/03/08 01:52:42;;;;;;;13.60;9.10;;;;;;;2.30;100.00;99876.31;5080684;28;20375;-65
2023/03/08 01:55:12;;;;;;;12.93;9.18;;;;;;;2.31;100.00;99877.97;5112093;28;20043;-64
2023/03/08 01:57:50;;;;;;;12.68;9.32;;;;;;;2.28;100.00;99867.66;5113365;28;20050;-64
2023/03/08 02:00:21;;;;;;;15.07;9.70;;;;;;;2.28;100.00;99863.09;5111014;28;20073;-62
2023/03/08 02:03:03;;;;;;;12.73;9.23;;;;;;;2.29;100.00;99861.25;5125054;28;20156;-64
2023/03/08 02:05:32;;;;;;;13.57;10.25;;;;;;;2.28;100.00;99859.59;5101405;28;20063;-64
2023/03/08 02:08:08;;;;;;;;;;;;;;;2.27;100.00;99864.16;5113192;27;20054;-64
2023/03/08 02:10:38;;;;;;;14.40;9.77;;;;;;;2.28;100.00;99859.59;5104621;28;19920;-63
2023/03/08 02:13:08;;;;;;;12.60;9.30;;;;;;;2.29;100.00;99854.00;5124604;28;20141;-63
2023/03/08 02:15:40;;;;;;;14.27;9.85;;;;;;;2.28;100.00;99846.16;5104393;28;20082;-63
2023/03/08 02:18:07;;;;;;;15.32;10.75;;;;;;;2.28;100.00;99852.34;5116262;28;20047;-62
2023/03/08 02:20:37;;;;;;;15.77;10.23;;;;;;;2.29;100.00;99845.94;5083988;28;20484;-63
2023/03/08 02:23:16;;;;;;;14.43;10.85;;;;;;;2.29;100.00;99842.44;5075899;28;20075;-63
2023/03/08 02:25:56;;;;;;;13.20;10.70;;;;;;;2.29;100.00;99839.75;5075751;28;20126;-64
2023/03/08 02:28:25;;;;;;;12.88;9.65;;;;;;;2.28;100.00;99836.22;5092032;28;20426;-65
2023/03/08 02:30:54;;;;;;;14.73;11.35;;;;;;;2.27;100.00;99825.72;5078970;28;20459;-63
2023/03/08 02:33:22;;;;;;;16.20;11.27;;;;;;;2.23;100.00;99822.69;5059637;28;20051;-65
2023/03/08 02:35:50;;;;;;;15.05;12.15;;;;;;;2.25;100.00;99811.69;5075100;28;20087;-63
2023/03/08 02:38:19;;;;;;;14.88;11.88;;;;;;;2.25;100.00;99811.69;5059828;28;20075;-63
2023/03/08 02:40:50;;;;;;;16.98;11.20;;;;;;;2.27;100.00;99810.41;5092472;27;20442;-65
2023/03/08 02:43:19;;;;;;;15.30;11.32;;;;;;;2.26;100.00;99814.16;5092477;28;20056;-64
2023/03/08 02:45:47;;;;;;;17.10;12.80;;;;;;;2.24;100.00;99820.84;5075208;28;20048;-64
2023/03/08 02:48:15;;;;;;;16.40;12.98;;;;;;;2.21;100.00;99807.84;5091682;28;20048;-64
2023/03/08 02:50:43;;;;;;;18.48;13.48;;;;;;;2.20;100.00;99800.84;5091662;28;20078;-65
2023/03/08 02:53:13;;;;;;;18.38;12.95;;;;;;;2.18;100.00;99797.59;5097837;28;20039;-64
2023/03/08 02:55:41;;;;;;;20.08;13.68;;;;;;;2.17;100.00;99791.41;5111976;28;20118;-64
2023/03/08 02:58:10;;;;;;;20.17;14.43;;;;;;;2.18;100.00;99808.34;5102162;28;20070;-64
2023/03/08 03:00:40;;;;;;;16.75;13.07;;;;;;;2.20;100.00;99800.84;5095400;28;20074;-65
2023/03/08 03:03:08;;;;;;;16.08;12.88;;;;;;;2.20;100.00;99800.84;5099809;28;20592;-64
2023/03/08 03:05:43;;;;;;;19.13;14.13;;;;;;;2.20;100.00;99792.78;5076509;28;20527;-65
2023/03/08 03:08:15;;;;;;;18.25;14.60;;;;;;;2.19;100.00;99800.03;5096207;28;20134;-63
2023/03/08 03:10:42;;;;;;;19.55;14.90;;;;;;;2.21;100.00;99797.09;5095203;28;20071;-63
2023/03/08 03:13:10;;;;;;;18.13;14.52;;;;;;;2.21;100.00;99802.47;5102093;28;20116;-64
2023/03/08 03:15:38;;;;;;;18.92;15.27;;;;;;;2.23;100.00;99795.00;5092109;28;20059;-64
2023/03/08 03:18:06;;;;;;;19.17;15.35;;;;;;;2.26;100.00;99789.13;5093866;28;20044;-65
2023/03/08 03:20:34;;;;;;;21.40;15.40;;;;;;;2.28;100.00;99781.66;5091785;28;20040;-64
2023/03/08 03:23:02;;;;;;;21.38;16.13;;;;;;;2.25;100.00;99774.06;5102007;28;20044;-64
2023/03/08 03:25:41;;;;;;;21.00;16.00;;;;;;;2.24;100.00;99780.53;5111973;28;20044;-63
2023/03/08 03:28:13;;;;;;;19.17;15.65;;;;;;;2.26;100.00;99778.38;5091356;28;20044;-64
2023/03/08 03:30:41;;;;;;;19.70;15.93;;;;;;;2.28;100.00;99765.53;5091963;28;20484;-64
2023/03/08 03:33:11;;;;;;;20.35;16.23;;;;;;;2.26;100.00;99778.38;5092597;28;20495;-64
2023/03/08 03:35:39;;;;;;;19.50;15.10;;;;;;;2.25;100.00;99766.00;5075464;28;20113;-65
2023/03/08 03:38:09;;;;;;;20.20;16.88;;;;;;;2.23;100.00;99762.75;5100671;28;20055;-66
2023/03/08 03:40:37;;;;;;;21.17;17.15;;;;;;;2.24;100.00;99749.06;5092916;28;20048;-64
2023/03/08 03:43:05;;;;;;;19.35;15.68;;;;;;;2.24;100.00;99742.91;5076679;28;20052;-65
2023/03/08 03:45:33;;;;;;;19.77;16.02;;;;;;;2.22;100.00;99728.88;5094930;28;20119;-64
2023/03/08 03:48:01;;;;;;;19.98;16.48;;;;;;;2.15;100.00;99720.16;5094586;28;20097;-64
2023/03/08 03:50:29;;;;;;;21.08;16.15;;;;;;;2.11;100.00;99727.84;5060156;28;20052;-64
2023/03/08 03:53:02;;;;;;;19.55;16.52;;;;;;;2.10;100.00;99721.66;5084467;28;20050;-64
2023/03/08 03:55:31;;;;;;;22.27;17.55;;;;;;;2.09;100.00;99712.00;5096478;28;20135;-65
2023/03/08 03:58:01;;;;;;;19.45;16.02;;;;;;;2.09;100.00;99720.06;5101602;28;20466;-63
2023/03/08 04:00:30;;;;;;;20.58;16.67;;;;;;;2.10;100.00;99727.03;5119635;28;20048;-64
2023/03/08 04:03:10;;;;;;;23.70;17.85;;;;;;;2.11;100.00;99717.91;5096764;28;20047;-65
2023/03/08 04:05:38;;;;;;;22.55;18.42;;;;;;;2.16;100.00;99713.69;5115686;28;20105;-65
2023/03/08 04:08:07;;;;;;;23.58;19.13;;;;;;;2.21;100.00;99716.47;5112492;28;20796;-65
2023/03/08 04:10:38;;;;;;;21.73;18.45;;;;;;;2.22;100.00;99713.56;5095126;28;20040;-66
2023/03/08 04:13:11;;;;;;;26.63;19.90;;;;;;;2.23;100.00;99719.75;5077630;28;20082;-63
2023/03/08 04:15:40;;;;;;;26.33;19.67;;;;;;;2.24;100.00;99711.47;5097195;27;20059;-64
2023/03/08 04:18:11;;;;;;;23.65;19.05;;;;;;;2.28;100.00;99701.03;5094828;28;20119;-64
2023/03/08 04:20:44;;;;;;;23.88;19.00;;;;;;;2.29;100.00;99689.22;5095687;28;20353;-64
2023/03/08 04:23:12;;;;;;;25.40;20.55;;;;;;;2.30;100.00;99685.47;5061316;28;20553;-64
2023/03/08 04:25:43;;;;;;;25.95;21.00;;;;;;;2.30;100.00;99680.09;5094777;28;20052;-64
2023/03/08 04:28:13;;;;;;;26.20;21.25;;;;;;;2.32;100.00;99678.00;5080325;28;20044;-64
2023/03/08 04:30:42;;;;;;;25.63;20.95;;;;;;;2.33;100.00;99677.75;5098440;28;20047;-66
2023/03/08 04:33:13;;;;;;;24.88;20.30;;;;;;;2.33;100.00;99682.31;5115038;28;20164;-62
2023/03/08 04:35:49;;;;;;;25.83;21.05;;;;;;;2.28;100.00;99669.59;5114939;28;20556;-64
2023/03/08 04:38:20;;;;;;;28.30;22.00;;;;;;;2.23;100.00;99671.38;5114365;28;20050;-64
2023/03/08 04:43:57;;;;;;;24.42;20.55;;;;;;;2.24;100.00;99663.09;5062245;28;20102;-65
2023/03/08 04:46:35;;;;;;;27.00;20.55;;;;;;;2.24;100.00;99656.91;5079260;28;20044;-64
2023/03/08 04:49:03;;;;;;;25.33;20.20;;;;;;;2.23;100.00;99657.94;5060890;28;20105;-65
2023/03/08 04:51:37;;;;;;;26.17;23.38;;;;;;;2.08;100.00;99653.91;5062747;28;20048;-65
2023/03/08 04:54:07;;;;;;;28.77;22.52;;;;;;;1.92;100.00;99644.78;5105473;27;20051;-64
2023/03/08 04:56:40;;;;;;;26.27;22.50;;;;;;;1.90;100.00;99641.50;5097143;28;20048;-63
2023/03/08 04:59:09;;;;;;;26.00;23.10;;;;;;;1.88;100.00;99632.06;5093992;28;20151;-63
2023/03/08 05:01:37;;;;;;;28.88;22.95;;;;;;;1.90;100.00;99630.78;5109618;27;20051;-62
2023/03/08 05:04:06;;;;;;;24.38;20.55;;;;;;;1.91;100.00;99626.22;5094546;28;20497;-64
2023/03/08 05:06:38;;;;;;;23.10;20.00;;;;;;;1.96;100.00;99623.63;5083671;28;20052;-64
2023/03/08 05:09:07;;;;;;;24.33;19.85;;;;;;;1.98;100.00;99616.13;5107140;27;20047;-64
2023/03/08 05:11:36;;;;;;;22.67;18.50;;;;;;;2.01;100.00;99612.16;5113828;28;20039;-64
2023/03/08 05:14:05;;;;;;;24.77;19.67;;;;;;;1.99;100.00;99611.56;5093178;28;20079;-62
2023/03/08 05:16:32;;;;;;;22.73;18.42;;;;;;;2.01;100.00;99615.63;5076712;28;20075;-63
2023/03/08 05:19:02;;;;;;;22.05;18.13;;;;;;;2.01;100.00;99604.91;5071364;28;20044;-64
2023/03/08 05:21:35;;;;;;;23.02;18.40;;;;;;;2.03;100.00;99593.91;5108327;27;20538;-63
2023/03/08 05:24:03;;;;;;;21.13;17.83;;;;;;;2.04;100.00;99604.41;5113691;28;20457;-63
2023/03/08 05:26:34;;;;;;;21.05;18.10;;;;;;;2.08;100.00;99597.50;5113671;28;20047;-64
2023/03/08 05:29:02;;;;;;;20.88;17.55;;;;;;;2.11;100.00;99586.25;5111602;27;20130;-63
2023/03/08 05:31:32;;;;;;;22.02;17.83;;;;;;;2.15;100.00;99580.41;5086232;28;20039;-64
2023/03/08 05:34:03;;;;;;;20.58;16.98;;;;;;;2.15;100.00;99573.16;5076269;28;20484;-64
2023/03/08 05:36:36;;;;;;;19.83;16.75;;;;;;;2.13;100.00;99570.72;5094489;28;20051;-63
2023/03/08 05:39:07;;;;;;;21.73;17.65;;;;;;;2.14;100.00;99560.78;5084553;28;20533;-65
2023/03/08 05:41:51;;;;;;;18.85;16.08;;;;;;;2.15;100.00;99557.03;5075320;28;20050;-65
2023/03/08 05:44:27;;;;;;;19.90;16.70;;;;;;;2.17;100.00;99554.13;5090348;28;20047;-65
2023/03/08 05:46:57;;;;;;;18.75;16.13;;;;;;;2.19;100.00;99546.59;5092349;28;20050;-63
2023/03/08 05:49:26;;;;;;;20.05;16.48;;;;;;;2.19;100.00;99547.44;5093467;28;20687;-64
2023/03/08 05:51:53;;;;;;;18.33;16.05;;;;;;;2.20;100.00;99540.19;5093323;27;20048;-64
2023/03/08 05:54:23;;;;;;;18.88;16.13;;;;;;;2.19;100.00;99533.19;5092575;28;20454;-63
2023/03/08 05:56:54;;;;;;;21.40;17.20;;;;;;;2.20;100.00;99530.25;5080233;28;20052;-62
2023/03/08 05:59:25;;;;;;;18.40;16.15;;;;;;;2.17;100.00;99525.38;5106565;28;20044;-63
2023/03/08 06:01:57;;;;;;;26.90;16.88;;;;;;;2.16;100.00;99523.72;5100874;28;20058;-63
2023/03/08 06:04:38;;;;;;;19.50;15.88;;;;;;;2.17;100.00;99517.31;5099553;27;20080;-64
2023/03/08 06:07:06;;;;;;;19.70;16.52;;;;;;;2.19;100.00;99512.50;5121064;28;20480;-62
2023/03/08 06:09:38;;;;;;;19.58;16.35;;;;;;;2.19;100.00;99512.50;5123038;28;20123;-65
2023/03/08 06:12:09;;;;;;;19.55;15.45;;;;;;;2.17;100.00;99501.19;5101198;28;20062;-63
2023/03/08 06:14:37;;;;;;;19.73;14.77;;;;;;;2.15;100.00;99497.13;5113416;28;20044;-65
2023/03/08 06:17:05;;;;;;;19.05;16.02;;;;;;;2.13;100.00;99498.16;5112369;28;20377;-63
2023/03/08 06:19:36;;;;;;;20.50;16.73;;;;;;;2.16;100.00;99496.06;5111908;27;20108;-64
2023/03/08 06:22:04;;;;;;;19.52;15.15;;;;;;;2.16;100.00;99499.56;5095661;28;20086;-64
2023/03/08 06:24:31;;;;;;;17.58;14.40;;;;;;;2.18;100.00;99502.00;5096385;28;20061;-64
2023/03/08 06:27:01;;;;;;;18.40;14.90;;;;;;;2.17;100.00;99492.31;5113325;28;20067;-65
2023/03/08 06:29:29;;;;;;;19.58;14.50;;;;;;;2.19;100.00;99495.56;5113553;28;20523;-63
2023/03/08 06:31:57;;;;;;;17.48;14.52;;;;;;;2.20;100.00;99489.94;5095051;28;20114;-65
2023/03/08 06:34:28;;;;;;;19.73;15.48;;;;;;;2.20;100.00;99495.31;5082798;28;20042;-64
2023/03/08 06:36:58;;;;;;;19.60;15.52;;;;;;;2.21;100.00;99491.56;5087084;28;20054;-63
2023/03/08 06:39:30;;;;;;;19.30;14.77;;;;;;;2.24;100.00;99492.97;5116572;28;20035;-64
2023/03/08 06:42:01;;;;;;;18.42;14.07;;;;;;;2.25;100.00;99494.59;5115547;28;20066;-65
2023/03/08 06:44:30;;;;;;;16.85;13.15;;;;;;;2.25;100.00;99490.03;5096828;28;20130;-64
2023/03/08 06:46:58;;;;;;;15.63;12.13;;;;;;;2.25;100.00;99483.84;5100109;28;20044;-64
2023/03/08 06:49:26;;;;;;;16.98;11.73;;;;;;;2.23;100.00;99483.25;5079456;28;20044;-65
2023/03/08 06:51:54;;;;;;;15.25;11.40;;;;;;;2.22;100.00;99482.47;5074122;28;20070;-64
2023/03/08 06:54:23;;;;;;;15.07;10.82;;;;;;;2.21;100.00;99486.19;5093955;28;20043;-63
2023/03/08 06:56:51;;;;;;;16.92;11.18;;;;;;;2.19;100.00;99482.13;5084339;28;20048;-64
2023/03/08 06:59:18;;;;;;;14.88;10.57;;;;;;;2.18;100.00;99475.13;4391115;28;10000688;-65
2023/03/08 07:01:46;;;;;;;14.63;10.32;;;;;;;2.19;100.00;99482.97;5110442;28;20075;-64
2023/03/08 07:04:14;;;;;;;13.45;9.60;;;;;;;2.21;100.00;99490.75;5111801;28;20122;-64
2023/03/08 07:06:41;;;;;;;15.25;9.65;;;;;;;2.21;100.00;99482.69;5107990;28;20044;-63
2023/03/08 07:09:09;;;;;;;13.63;9.25;;;;;;;2.20;100.00;99489.94;5091537;28;20055;-65
2023/03/08 07:11:38;;;;;;;14.50;10.27;;;;;;;2.20;100.00;99494.50;5098823;28;20395;-64
2023/03/08 07:14:05;;;;;;;13.00;9.77;;;;;;;2.18;100.00;99477.81;5110290;28;20415;-64
2023/03/08 07:16:33;;;;;;;13.65;10.02;;;;;;;2.21;100.00;99480.00;5113257;28;20048;-64
2023/03/08 07:19:02;;;;;;;14.10;9.50;;;;;;;2.18;100.00;99477.81;5104574;28;20154;-64
2023/03/08 07:21:29;;;;;;;14.32;10.27;;;;;;;2.08;100.00;99487.34;5097826;28;20544;-64
2023/03/08 07:23:57;;;;;;;12.25;9.73;;;;;;;2.03;100.00;99484.59;5070992;28;20048;-65
2023/03/08 07:26:25;;;;;;;13.88;9.30;;;;;;;1.95;100.00;99476.94;5091702;28;20060;-65
2023/03/08 07:28:54;;;;;;;12.48;9.00;;;;;;;1.87;100.00;99474.66;5091878;28;20048;-65
2023/03/08 07:31:22;;;;;;;12.10;8.95;;;;;;;1.79;100.00;99461.63;5108776;28;20479;-64
2023/03/08 07:33:50;;;;;;;14.50;8.90;;;;;;;1.59;100.00;99448.66;5076492;28;20507;-64
2023/03/08 07:36:17;;;;;;;12.27;8.00;;;;;;;1.52;100.00;99450.72;5111375;28;20054;-65
2023/03/08 07:38:45;;;;;;;11.45;7.10;;;;;;;1.51;100.00;99449.88;5092620;28;20480;-64
2023/03/08 07:41:13;;;;;;;10.95;6.85;;;;;;;1.58;100.00;99450.53;5107762;28;20047;-64
2023/03/08 07:43:41;;;;;;;10.75;6.35;;;;;;;1.58;100.00;99439.00;5112279;28;20720;-65
2023/03/08 07:46:14;;;;;;;11.60;6.90;;;;;;;1.60;100.00;99448.44;5095293;28;20123;-65
2023/03/08 07:48:41;;;;;;;10.98;6.30;;;;;;;1.65;100.00;99451.19;5113525;28;20062;-64
2023/03/08 07:51:09;;;;;;;10.15;6.53;;;;;;;1.67;100.00;99448.28;5113507;28;20075;-65
2023/03/08 07:53:37;;;;;;;14.13;6.85;;;;;;;1.67;100.00;99443.72;5105365;28;20058;-65
2023/03/08 07:56:06;;;;;;;10.07;6.20;;;;;;;1.58;100.00;99439.00;5074823;28;20050;-63
2023/03/08 07:58:34;;;;;;;11.90;6.53;;;;;;;1.56;100.00;99441.91;5092728;28;20722;-66
2023/03/08 08:01:06;;;;;;;10.13;5.63;;;;;;;1.53;100.00;99437.03;5091361;28;20058;-65
2023/03/08 08:03:34;;;;;;;8.77;5.68;;;;;;;1.58;100.00;99434.44;5091610;28;20387;-65
2023/03/08 08:06:03;;;;;;;9.23;5.55;;;;;;;1.61;100.00;99428.59;5091669;28;20139;-65
2023/03/08 08:08:31;;;;;;;9.27;5.57;;;;;;;1.58;100.00;99434.44;5077065;28;20070;-65
2023/03/08 08:10:59;;;;;;;8.43;5.25;;;;;;;1.59;100.00;99430.72;5094444;28;20047;-66
2023/03/08 08:13:27;;;;;;;9.32;5.70;;;;;;;1.55;100.00;99434.13;5095452;28;20450;-65
2023/03/08 08:16:01;;;;;;;8.35;5.60;;;;;;;1.59;100.00;99425.34;5095510;28;20048;-64
2023/03/08 08:18:29;;;;;;;8.30;6.07;;;;;;;1.62;100.00;99422.16;5096902;28;20048;-65
2023/03/08 08:21:06;;;;;;;9.00;5.53;;;;;;;1.65;100.00;99407.44;5098705;28;20411;-65
2023/03/08 08:23:34;;;;;;;9.40;6.10;;;;;;;1.69;100.00;99420.13;5109876;28;20052;-65
2023/03/08 08:26:07;;;;;;;9.25;6.20;;;;;;;1.66;100.00;99414.44;5097525;28;20052;-65
2023/03/08 08:28:36;;;;;;;8.35;6.03;;;;;;;1.62;100.00;99414.13;5095185;28;20066;-65
2023/03/08 08:31:10;;;;;;;9.40;5.72;;;;;;;1.67;100.00;99408.81;5096286;28;20131;-65
2023/03/08 08:33:38;;;;;;;8.52;5.93;;;;;;;1.68;100.00;99405.09;5094893;28;20589;-64
2023/03/08 08:36:12;;;;;;;12.10;6.18;;;;;;;1.74;100.00;99410.53;5112025;27;20083;-65
2023/03/08 08:38:42;;;;;;;9.60;5.20;;;;;;;1.80;100.00;99404.97;5086795;28;20138;-64
2023/03/08 08:41:10;;;;;;;8.40;5.18;;;;;;;1.72;100.00;99399.22;5098259;28;20054;-64
2023/03/08 08:43:37;;;;;;;7.35;5.20;;;;;;;1.62;100.00;99387.28;5097438;28;20055;-64
2023/03/08 08:46:05;;;;;;;8.32;5.32;;;;;;;1.60;100.00;99378.66;5113089;28;20142;-65
2023/03/08 08:48:33;;;;;;;7.95;5.13;;;;;;;1.53;100.00;99372.63;5115058;28;20051;-65
2023/03/08 08:51:01;;;;;;;8.57;4.30;;;;;;;1.30;100.00;99378.13;5114913;28;20483;-65
2023/03/08 08:53:29;;;;;;;8.48;4.82;;;;;;;1.28;100.00;99381.88;5107045;28;20066;-65
2023/03/08 08:56:11;;;;;;;7.65;4.57;;;;;;;1.22;100.00;99380.16;5096265;28;20048;-65
2023/03/08 08:58:55;;;;;;;8.98;5.40;;;;;;;1.26;100.00;99378.63;5120556;27;20135;-65
2023/03/08 09:01:26;;;;;;;8.93;4.68;;;;;;;1.27;100.00;99374.91;5080900;28;20044;-63
2023/03/08 09:03:54;;;;;;;7.80;5.53;;;;;;;1.32;100.00;99384.09;5096647;28;20076;-62
2023/03/08 09:06:23;;;;;;;9.80;5.63;;;;;;;1.31;100.00;99396.69;5116014;28;20054;-65
2023/03/08 09:08:53;;;;;;;9.75;6.68;;;;;;;1.41;100.00;99388.00;5097506;28;20134;-64
2023/03/08 09:11:22;;;;;;;12.40;6.85;;;;;;;1.49;100.00;99388.41;5112451;28;20044;-63
2023/03/08 09:13:50;;;;;;;11.32;7.47;;;;;;;1.47;100.00;99387.03;5112811;27;20410;-66
2023/03/08 09:16:19;;;;;;;10.35;7.88;;;;;;;1.45;100.00;99392.63;5097644;28;20094;-65
2023/03/08 09:18:47;;;;;;;10.23;7.85;;;;;;;1.42;100.00;99386.94;5115324;28;20126;-63
2023/03/08 09:21:16;;;;;;;12.07;9.05;;;;;;;1.42;100.00;99381.56;5115049;27;20043;-63
2023/03/08 09:23:44;;;;;;;10.52;8.38;;;;;;;1.42;100.00;99365.47;5105833;28;20100;-63
2023/03/08 09:26:12;;;;;;;10.90;7.65;;;;;;;1.51;100.00;99347.91;5085105;28;20052;-63
2023/03/08 09:28:40;;;;;;;12.10;8.40;;;;;;;1.52;100.00;99343.38;5061698;28;20073;-64
2023/03/08 09:31:15;;;;;;;10.70;8.10;;;;;;;1.46;100.00;99331.72;5094399;28;20048;-64
2023/03/08 09:33:47;;;;;;;11.05;8.15;;;;;;;1.44;100.00;99321.25;5095695;28;20044;-64
2023/03/08 09:36:16;;;;;;;12.15;9.07;;;;;;;1.36;100.00;99339.63;5096470;28;20051;-64
2023/03/08 09:38:45;;;;;;;13.95;10.07;;;;;;;1.31;100.00;99331.50;5096898;28;20055;-65
2023/03/08 09:41:20;;;;;;;12.57;8.75;;;;;;;1.39;100.00;99320.34;5113958;28;20470;-64
2023/03/08 09:44:17;;;;;;;11.93;8.15;;;;;;;1.47;100.00;99314.56;5114463;28;20051;-64
2023/03/08 09:46:50;;;;;;;13.25;9.13;;;;;;;1.42;100.00;99318.00;5113412;28;20081;-65
2023/03/08 09:49:29;;;;;;;15.30;9.88;;;;;;;1.44;100.00;99315.03;5093972;28;20400;-64
2023/03/08 09:52:04;;;;;;;15.18;10.45;;;;;;;1.46;100.00;99303.00;5092947;28;20048;-64
2023/03/08 09:54:33;;;;;;;12.80;9.18;;;;;;;1.40;100.00;99308.56;5093210;28;20442;-64
2023/03/08 09:57:02;;;;;;;13.98;8.80;;;;;;;1.39;100.00;99288.94;5094881;28;20071;-64
2023/03/08 09:59:39;;;;;;;15.38;8.45;;;;;;;1.50;100.00;99287.22;5080262;28;20078;-64
2023/03/08 10:02:13;;;;;;;13.55;8.65;;;;;;;1.44;100.00;99305.16;5061842;28;20040;-63
2023/03/08 10:04:49;;;;;;;10.90;7.90;;;;;;;1.38;100.00;99308.78;5094796;28;20036;-63
2023/03/08 10:07:54;;;;;;;13.10;8.45;;;;;;;1.51;100.00;99283.47;5102364;28;20066;-63
2023/03/08 10:10:40;;;;;;;14.10;8.57;;;;;;;1.59;100.00;99275.03;5100858;28;20054;-61
2023/03/08 10:13:35;;;;;;;12.52;8.18;;;;;;;1.73;100.00;99270.09;5095507;28;20048;-63
2023/03/08 10:16:27;;;;;;;11.32;7.60;;;;;;;1.75;100.00;99272.53;5076541;28;20075;-64
2023/03/08 10:18:57;;;;;;;12.43;8.32;;;;;;;1.74;100.00;99281.66;5069913;28;20500;-64
2023/03/08 10:21:28;;;;;;;13.65;9.32;;;;;;;1.75;100.00;99286.75;4390461;28;10000647;-64
2023/03/08 10:24:25;;;;;;;12.32;9.02;;;;;;;1.79;100.00;99284.41;5107544;28;20732;-65
2023/03/08 10:27:23;;;;;;;16.60;8.63;;;;;;;1.77;100.00;99313.38;5110418;28;20060;-65
2023/03/08 10:29:58;;;;;;;12.05;8.40;;;;;;;1.74;100.00;99308.50;5108973;28;20051;-65
2023/03/08 10:32:26;;;;;;;11.48;8.30;;;;;;;1.68;100.00;99303.06;5092178;28;20047;-65
2023/03/08 10:35:01;;;;;;;12.13;8.02;;;;;;;1.65;100.00;99287.44;5107478;28;20525;-66
2023/03/08 10:37:32;;;;;;;11.43;7.55;;;;;;;1.59;100.00;99275.03;5092494;28;20519;-65
2023/03/08 10:40:04;;;;;;;10.88;7.95;;;;;;;1.65;100.00;99271.34;5109280;28;20051;-65
2023/03/08 10:42:33;;;;;;;12.80;7.55;;;;;;;1.77;100.00;99265.84;5092056;28;20134;-65
2023/03/08 10:45:14;;;;;;;11.27;7.70;;;;;;;1.76;100.00;99266.13;5106092;28;20159;-65
2023/03/08 10:47:41;;;;;;;10.20;6.55;;;;;;;1.76;100.00;99264.25;5103392;28;20050;-65
2023/03/08 10:50:19;;;;;;;9.93;6.70;;;;;;;1.62;100.00;99262.97;5109320;28;20043;-65
2023/03/08 10:52:49;;;;;;;9.02;6.07;;;;;;;1.57;100.00;99262.91;5098717;28;20043;-66
2023/03/08 10:55:23;;;;;;;8.73;5.60;;;;;;;1.64;100.00;99267.03;5102325;28;20047;-65
2023/03/08 10:57:56;;;;;;;10.38;5.78;;;;;;;1.70;100.00;99257.16;5113883;28;20048;-65
2023/03/08 11:00:31;;;;;;;9.32;5.68;;;;;;;1.82;100.00;99243.63;5104895;28;20050;-66
2023/03/08 11:03:18;;;;;;;11.85;5.60;;;;;;;2.01;100.00;99239.56;5099114;28;20138;-66
2023/03/08 11:06:04;;;;;;;7.50;4.93;;;;;;;2.00;100.00;99245.22;5080044;28;20075;-64
2023/03/08 11:08:38;;;;;;;10.40;5.68;;;;;;;1.89;100.00;99255.81;5105188;28;20048;-66
2023/03/08 11:11:08;;;;;;;7.57;5.03;;;;;;;1.92;100.00;99262.56;5108287;28;20491;-66
2023/03/08 11:13:38;;;;;;;8.75;5.53;;;;;;;1.99;100.00;99257.81;5084431;28;20408;-65
2023/03/08 11:16:19;;;;;;;8.32;5.20;;;;;;;1.90;100.00;99262.81;5085257;28;20052;-65
2023/03/08 11:19:01;;;;;;;8.05;5.20;;;;;;;1.90;100.00;99259.28;5072829;28;20481;-65
2023/03/08 11:22:10;;;;;;;9.73;5.90;;;;;;;1.88;100.00;99264.94;5085297;28;20371;-65
2023/03/08 11:24:57;;;;;;;10.85;5.95;;;;;;;1.80;100.00;99270.72;5109366;28;20051;-65
2023/03/08 11:27:35;;;;;;;;;;;;;;;1.85;100.00;99269.97;5092058;28;20056;-65
2023/03/08 11:30:16;;;;;;;8.75;5.68;;;;;;;1.84;100.00;99273.75;5089514;28;20018;-65
2023/03/08 11:33:21;;;;;;;9.18;5.15;;;;;;;1.87;100.00;99257.13;5087530;28;20119;-65
2023/03/08 11:35:55;;;;;;;9.15;5.68;;;;;;;1.84;100.00;99261.13;5056010;28;20066;-64
2023/03/08 11:38:24;;;;;;;11.18;6.72;;;;;;;1.89;100.00;99253.13;5104525;28;20048;-65
2023/03/08 11:41:01;;;;;;;8.88;6.13;;;;;;;1.84;100.00;99252.25;5071251;28;20621;-65
2023/03/08 11:43:35;;;;;;;8.93;5.40;;;;;;;1.72;100.00;99236.25;5055678;28;20078;-64
2023/03/08 11:46:27;;;;;;;10.50;5.63;;;;;;;1.74;100.00;99227.97;5099304;28;20035;-65